<?xml version="1.0" encoding="UTF-8" standalone="no" ?>
<gpx xmlns="http://www.topografix.com/GPX/1/1" xmlns:xsi="http://www.w3.org/2001/XMLSchema-instance" xsi:schemaLocation="http://www.topografix.com/GPX/1/1 http://www.topografix.com/GPX/1/1/gpx.xsd" version="1.1" creator="VisuGPX - https://www.visugpx.com">
  <metadata>
    <name>Coursegoules - St Pons</name>
    <desc><![CDATA[Départ Coursegoules. D\\\'abord descente jusqu\\\'à la route de Gréollieres et avant de passer la cagnes on tourne à droite en direction de l\\\'Autreville. Poursuite du chemin jusqu\\\'à St Pons (en fait au dessus de St Pons). Direction Chapelle St Michel, puis coursegoules.]]></desc>
  </metadata>
  <trk>
    <name><![CDATA[8 déc. 2011 08:36:44]]></name>
    <cmt><![CDATA[8 déc. 2011 08:36:44]]></cmt>
    <trkseg>
      <trkpt lat="43.79406" lon="7.04444">
        <ele>1040</ele>
        <time>2011-12-08T07:36:48Z</time>
      </trkpt>
      <trkpt lat="43.79418" lon="7.04411">
        <ele>1049</ele>
        <time>2011-12-08T07:37:18Z</time>
      </trkpt>
      <trkpt lat="43.79421" lon="7.04395">
        <ele>1050</ele>
        <time>2011-12-08T07:37:33Z</time>
      </trkpt>
      <trkpt lat="43.79425" lon="7.04376">
        <ele>1051</ele>
        <time>2011-12-08T07:37:48Z</time>
      </trkpt>
      <trkpt lat="43.79431" lon="7.0434">
        <ele>1049</ele>
        <time>2011-12-08T07:38:03Z</time>
      </trkpt>
      <trkpt lat="43.7943" lon="7.0432">
        <ele>1047</ele>
        <time>2011-12-08T07:38:18Z</time>
      </trkpt>
      <trkpt lat="43.79431" lon="7.04314">
        <ele>1069</ele>
        <time>2011-12-08T07:38:34Z</time>
      </trkpt>
      <trkpt lat="43.79424" lon="7.04317">
        <ele>1052</ele>
        <time>2011-12-08T07:38:49Z</time>
      </trkpt>
      <trkpt lat="43.7945" lon="7.04282">
        <ele>1046</ele>
        <time>2011-12-08T07:39:19Z</time>
      </trkpt>
      <trkpt lat="43.79464" lon="7.04263">
        <ele>1048</ele>
        <time>2011-12-08T07:39:34Z</time>
      </trkpt>
      <trkpt lat="43.7948" lon="7.0425">
        <ele>1046</ele>
        <time>2011-12-08T07:39:49Z</time>
      </trkpt>
      <trkpt lat="43.79495" lon="7.04233">
        <ele>1040</ele>
        <time>2011-12-08T07:40:04Z</time>
      </trkpt>
      <trkpt lat="43.79528" lon="7.0421">
        <ele>1053</ele>
        <time>2011-12-08T07:40:35Z</time>
      </trkpt>
      <trkpt lat="43.79528" lon="7.04182">
        <ele>1052</ele>
        <time>2011-12-08T07:40:50Z</time>
      </trkpt>
      <trkpt lat="43.79523" lon="7.04166">
        <ele>1060</ele>
        <time>2011-12-08T07:41:05Z</time>
      </trkpt>
      <trkpt lat="43.79508" lon="7.04121">
        <ele>1042</ele>
        <time>2011-12-08T07:41:35Z</time>
      </trkpt>
      <trkpt lat="43.795" lon="7.04095">
        <ele>1050</ele>
        <time>2011-12-08T07:41:50Z</time>
      </trkpt>
      <trkpt lat="43.79496" lon="7.0407">
        <ele>1049</ele>
        <time>2011-12-08T07:42:05Z</time>
      </trkpt>
      <trkpt lat="43.79486" lon="7.04025">
        <ele>1039</ele>
        <time>2011-12-08T07:42:36Z</time>
      </trkpt>
      <trkpt lat="43.79483" lon="7.0402">
        <ele>1037</ele>
        <time>2011-12-08T07:43:06Z</time>
      </trkpt>
      <trkpt lat="43.79461" lon="7.0403">
        <ele>1043</ele>
        <time>2011-12-08T07:43:36Z</time>
      </trkpt>
      <trkpt lat="43.79461" lon="7.04026">
        <ele>1037</ele>
        <time>2011-12-08T07:44:52Z</time>
      </trkpt>
      <trkpt lat="43.79457" lon="7.0401">
        <ele>1041</ele>
        <time>2011-12-08T07:45:07Z</time>
      </trkpt>
      <trkpt lat="43.79464" lon="7.03991">
        <ele>1043</ele>
        <time>2011-12-08T07:45:22Z</time>
      </trkpt>
      <trkpt lat="43.79474" lon="7.03966">
        <ele>1043</ele>
        <time>2011-12-08T07:45:37Z</time>
      </trkpt>
      <trkpt lat="43.79481" lon="7.03917">
        <ele>1046</ele>
        <time>2011-12-08T07:46:23Z</time>
      </trkpt>
      <trkpt lat="43.79472" lon="7.03921">
        <ele>1044</ele>
        <time>2011-12-08T07:46:38Z</time>
      </trkpt>
      <trkpt lat="43.7949" lon="7.03899">
        <ele>1048</ele>
        <time>2011-12-08T07:47:57Z</time>
      </trkpt>
      <trkpt lat="43.7948" lon="7.03878">
        <ele>1042</ele>
        <time>2011-12-08T07:48:12Z</time>
      </trkpt>
      <trkpt lat="43.79478" lon="7.03892">
        <ele>1037</ele>
        <time>2011-12-08T07:48:27Z</time>
      </trkpt>
      <trkpt lat="43.7947" lon="7.03913">
        <ele>1058</ele>
        <time>2011-12-08T07:49:19Z</time>
      </trkpt>
      <trkpt lat="43.79444" lon="7.03893">
        <ele>1004</ele>
        <time>2011-12-08T07:49:50Z</time>
      </trkpt>
      <trkpt lat="43.79427" lon="7.03888">
        <ele>1005</ele>
        <time>2011-12-08T07:50:05Z</time>
      </trkpt>
      <trkpt lat="43.79428" lon="7.03867">
        <ele>1002</ele>
        <time>2011-12-08T07:50:20Z</time>
      </trkpt>
      <trkpt lat="43.79435" lon="7.03853">
        <ele>1000</ele>
        <time>2011-12-08T07:50:35Z</time>
      </trkpt>
      <trkpt lat="43.79426" lon="7.03832">
        <ele>989</ele>
        <time>2011-12-08T07:51:05Z</time>
      </trkpt>
      <trkpt lat="43.79422" lon="7.03827">
        <ele>990</ele>
        <time>2011-12-08T07:51:20Z</time>
      </trkpt>
      <trkpt lat="43.79413" lon="7.03834">
        <ele>986</ele>
        <time>2011-12-08T07:51:36Z</time>
      </trkpt>
      <trkpt lat="43.79403" lon="7.03818">
        <ele>979</ele>
        <time>2011-12-08T07:52:06Z</time>
      </trkpt>
      <trkpt lat="43.79384" lon="7.03808">
        <ele>984</ele>
        <time>2011-12-08T07:52:21Z</time>
      </trkpt>
      <trkpt lat="43.79377" lon="7.03801">
        <ele>970</ele>
        <time>2011-12-08T07:53:36Z</time>
      </trkpt>
      <trkpt lat="43.79376" lon="7.03805">
        <ele>972</ele>
        <time>2011-12-08T07:54:37Z</time>
      </trkpt>
      <trkpt lat="43.79372" lon="7.03799">
        <ele>982</ele>
        <time>2011-12-08T07:55:37Z</time>
      </trkpt>
      <trkpt lat="43.79369" lon="7.03796">
        <ele>987</ele>
        <time>2011-12-08T07:56:53Z</time>
      </trkpt>
      <trkpt lat="43.79358" lon="7.03789">
        <ele>981</ele>
        <time>2011-12-08T07:57:08Z</time>
      </trkpt>
      <trkpt lat="43.79341" lon="7.03775">
        <ele>979</ele>
        <time>2011-12-08T07:57:23Z</time>
      </trkpt>
      <trkpt lat="43.79331" lon="7.03754">
        <ele>984</ele>
        <time>2011-12-08T07:57:38Z</time>
      </trkpt>
      <trkpt lat="43.79325" lon="7.03733">
        <ele>977</ele>
        <time>2011-12-08T07:57:53Z</time>
      </trkpt>
      <trkpt lat="43.79343" lon="7.03685">
        <ele>999</ele>
        <time>2011-12-08T07:58:09Z</time>
      </trkpt>
      <trkpt lat="43.79312" lon="7.03696">
        <ele>967</ele>
        <time>2011-12-08T07:58:39Z</time>
      </trkpt>
      <trkpt lat="43.79314" lon="7.03704">
        <ele>963</ele>
        <time>2011-12-08T07:58:54Z</time>
      </trkpt>
      <trkpt lat="43.79328" lon="7.03715">
        <ele>958</ele>
        <time>2011-12-08T07:59:09Z</time>
      </trkpt>
      <trkpt lat="43.79337" lon="7.03699">
        <ele>961</ele>
        <time>2011-12-08T07:59:24Z</time>
      </trkpt>
      <trkpt lat="43.79349" lon="7.03666">
        <ele>967</ele>
        <time>2011-12-08T07:59:39Z</time>
      </trkpt>
      <trkpt lat="43.79348" lon="7.03637">
        <ele>964</ele>
        <time>2011-12-08T07:59:55Z</time>
      </trkpt>
      <trkpt lat="43.79354" lon="7.03609">
        <ele>969</ele>
        <time>2011-12-08T08:00:10Z</time>
      </trkpt>
      <trkpt lat="43.79366" lon="7.03584">
        <ele>973</ele>
        <time>2011-12-08T08:00:25Z</time>
      </trkpt>
      <trkpt lat="43.79373" lon="7.03563">
        <ele>960</ele>
        <time>2011-12-08T08:00:40Z</time>
      </trkpt>
      <trkpt lat="43.79377" lon="7.03538">
        <ele>960</ele>
        <time>2011-12-08T08:00:55Z</time>
      </trkpt>
      <trkpt lat="43.79368" lon="7.03515">
        <ele>969</ele>
        <time>2011-12-08T08:01:10Z</time>
      </trkpt>
      <trkpt lat="43.79351" lon="7.03506">
        <ele>960</ele>
        <time>2011-12-08T08:01:25Z</time>
      </trkpt>
      <trkpt lat="43.79352" lon="7.03494">
        <ele>957</ele>
        <time>2011-12-08T08:01:40Z</time>
      </trkpt>
      <trkpt lat="43.79367" lon="7.03482">
        <ele>936</ele>
        <time>2011-12-08T08:01:56Z</time>
      </trkpt>
      <trkpt lat="43.79368" lon="7.03456">
        <ele>964</ele>
        <time>2011-12-08T08:02:11Z</time>
      </trkpt>
      <trkpt lat="43.79371" lon="7.0341">
        <ele>972</ele>
        <time>2011-12-08T08:02:41Z</time>
      </trkpt>
      <trkpt lat="43.79367" lon="7.034">
        <ele>965</ele>
        <time>2011-12-08T08:02:56Z</time>
      </trkpt>
      <trkpt lat="43.79351" lon="7.03392">
        <ele>969</ele>
        <time>2011-12-08T08:03:11Z</time>
      </trkpt>
      <trkpt lat="43.79346" lon="7.03374">
        <ele>973</ele>
        <time>2011-12-08T08:03:26Z</time>
      </trkpt>
      <trkpt lat="43.79344" lon="7.03351">
        <ele>976</ele>
        <time>2011-12-08T08:03:41Z</time>
      </trkpt>
      <trkpt lat="43.79343" lon="7.03303">
        <ele>961</ele>
        <time>2011-12-08T08:04:12Z</time>
      </trkpt>
      <trkpt lat="43.7934" lon="7.03282">
        <ele>968</ele>
        <time>2011-12-08T08:04:27Z</time>
      </trkpt>
      <trkpt lat="43.79339" lon="7.0326">
        <ele>965</ele>
        <time>2011-12-08T08:04:42Z</time>
      </trkpt>
      <trkpt lat="43.79339" lon="7.03242">
        <ele>970</ele>
        <time>2011-12-08T08:04:57Z</time>
      </trkpt>
      <trkpt lat="43.79339" lon="7.03223">
        <ele>970</ele>
        <time>2011-12-08T08:05:12Z</time>
      </trkpt>
      <trkpt lat="43.79347" lon="7.03203">
        <ele>965</ele>
        <time>2011-12-08T08:05:27Z</time>
      </trkpt>
      <trkpt lat="43.79352" lon="7.03182">
        <ele>972</ele>
        <time>2011-12-08T08:05:42Z</time>
      </trkpt>
      <trkpt lat="43.79348" lon="7.0316">
        <ele>964</ele>
        <time>2011-12-08T08:05:58Z</time>
      </trkpt>
      <trkpt lat="43.79345" lon="7.03135">
        <ele>971</ele>
        <time>2011-12-08T08:06:13Z</time>
      </trkpt>
      <trkpt lat="43.79337" lon="7.0312">
        <ele>968</ele>
        <time>2011-12-08T08:06:28Z</time>
      </trkpt>
      <trkpt lat="43.79334" lon="7.031">
        <ele>973</ele>
        <time>2011-12-08T08:06:43Z</time>
      </trkpt>
      <trkpt lat="43.79331" lon="7.03084">
        <ele>974</ele>
        <time>2011-12-08T08:06:58Z</time>
      </trkpt>
      <trkpt lat="43.79336" lon="7.03067">
        <ele>967</ele>
        <time>2011-12-08T08:07:13Z</time>
      </trkpt>
      <trkpt lat="43.79339" lon="7.03052">
        <ele>980</ele>
        <time>2011-12-08T08:07:28Z</time>
      </trkpt>
      <trkpt lat="43.79344" lon="7.03032">
        <ele>975</ele>
        <time>2011-12-08T08:07:44Z</time>
      </trkpt>
      <trkpt lat="43.79345" lon="7.03012">
        <ele>979</ele>
        <time>2011-12-08T08:07:59Z</time>
      </trkpt>
      <trkpt lat="43.79348" lon="7.03">
        <ele>974</ele>
        <time>2011-12-08T08:08:14Z</time>
      </trkpt>
      <trkpt lat="43.79349" lon="7.02979">
        <ele>981</ele>
        <time>2011-12-08T08:08:29Z</time>
      </trkpt>
      <trkpt lat="43.79355" lon="7.02963">
        <ele>976</ele>
        <time>2011-12-08T08:08:44Z</time>
      </trkpt>
      <trkpt lat="43.79349" lon="7.0296">
        <ele>972</ele>
        <time>2011-12-08T08:08:59Z</time>
      </trkpt>
      <trkpt lat="43.79347" lon="7.02944">
        <ele>976</ele>
        <time>2011-12-08T08:09:14Z</time>
      </trkpt>
      <trkpt lat="43.79357" lon="7.02934">
        <ele>979</ele>
        <time>2011-12-08T08:09:30Z</time>
      </trkpt>
      <trkpt lat="43.79364" lon="7.02908">
        <ele>982</ele>
        <time>2011-12-08T08:09:45Z</time>
      </trkpt>
      <trkpt lat="43.79366" lon="7.02889">
        <ele>981</ele>
        <time>2011-12-08T08:10:00Z</time>
      </trkpt>
      <trkpt lat="43.79364" lon="7.0287">
        <ele>985</ele>
        <time>2011-12-08T08:10:15Z</time>
      </trkpt>
      <trkpt lat="43.79371" lon="7.02853">
        <ele>979</ele>
        <time>2011-12-08T08:10:30Z</time>
      </trkpt>
      <trkpt lat="43.79374" lon="7.02832">
        <ele>980</ele>
        <time>2011-12-08T08:10:45Z</time>
      </trkpt>
      <trkpt lat="43.79365" lon="7.02818">
        <ele>981</ele>
        <time>2011-12-08T08:11:00Z</time>
      </trkpt>
      <trkpt lat="43.79359" lon="7.02798">
        <ele>978</ele>
        <time>2011-12-08T08:11:15Z</time>
      </trkpt>
      <trkpt lat="43.79359" lon="7.02784">
        <ele>977</ele>
        <time>2011-12-08T08:11:31Z</time>
      </trkpt>
      <trkpt lat="43.79352" lon="7.02766">
        <ele>980</ele>
        <time>2011-12-08T08:11:46Z</time>
      </trkpt>
      <trkpt lat="43.7935" lon="7.02747">
        <ele>975</ele>
        <time>2011-12-08T08:12:01Z</time>
      </trkpt>
      <trkpt lat="43.79342" lon="7.02713">
        <ele>985</ele>
        <time>2011-12-08T08:12:31Z</time>
      </trkpt>
      <trkpt lat="43.79337" lon="7.02698">
        <ele>982</ele>
        <time>2011-12-08T08:12:46Z</time>
      </trkpt>
      <trkpt lat="43.79329" lon="7.02665">
        <ele>991</ele>
        <time>2011-12-08T08:13:32Z</time>
      </trkpt>
      <trkpt lat="43.79326" lon="7.02659">
        <ele>985</ele>
        <time>2011-12-08T08:14:17Z</time>
      </trkpt>
      <trkpt lat="43.79336" lon="7.02666">
        <ele>969</ele>
        <time>2011-12-08T08:15:17Z</time>
      </trkpt>
      <trkpt lat="43.79347" lon="7.02674">
        <ele>978</ele>
        <time>2011-12-08T08:15:33Z</time>
      </trkpt>
      <trkpt lat="43.79343" lon="7.0267">
        <ele>988</ele>
        <time>2011-12-08T08:16:18Z</time>
      </trkpt>
      <trkpt lat="43.79338" lon="7.0267">
        <ele>1001</ele>
        <time>2011-12-08T08:16:33Z</time>
      </trkpt>
      <trkpt lat="43.7933" lon="7.02665">
        <ele>985</ele>
        <time>2011-12-08T08:16:48Z</time>
      </trkpt>
      <trkpt lat="43.79328" lon="7.02662">
        <ele>973</ele>
        <time>2011-12-08T08:17:19Z</time>
      </trkpt>
      <trkpt lat="43.79327" lon="7.02647">
        <ele>994</ele>
        <time>2011-12-08T08:18:42Z</time>
      </trkpt>
      <trkpt lat="43.79333" lon="7.02628">
        <ele>994</ele>
        <time>2011-12-08T08:18:57Z</time>
      </trkpt>
      <trkpt lat="43.79347" lon="7.02597">
        <ele>978</ele>
        <time>2011-12-08T08:19:27Z</time>
      </trkpt>
      <trkpt lat="43.79345" lon="7.02583">
        <ele>979</ele>
        <time>2011-12-08T08:19:42Z</time>
      </trkpt>
      <trkpt lat="43.79355" lon="7.02574">
        <ele>973</ele>
        <time>2011-12-08T08:19:57Z</time>
      </trkpt>
      <trkpt lat="43.79361" lon="7.02558">
        <ele>977</ele>
        <time>2011-12-08T08:20:13Z</time>
      </trkpt>
      <trkpt lat="43.79369" lon="7.02546">
        <ele>976</ele>
        <time>2011-12-08T08:20:28Z</time>
      </trkpt>
      <trkpt lat="43.79374" lon="7.02531">
        <ele>978</ele>
        <time>2011-12-08T08:20:43Z</time>
      </trkpt>
      <trkpt lat="43.79376" lon="7.02516">
        <ele>977</ele>
        <time>2011-12-08T08:20:58Z</time>
      </trkpt>
      <trkpt lat="43.7939" lon="7.02501">
        <ele>986</ele>
        <time>2011-12-08T08:21:28Z</time>
      </trkpt>
      <trkpt lat="43.79391" lon="7.02495">
        <ele>1003</ele>
        <time>2011-12-08T08:21:43Z</time>
      </trkpt>
      <trkpt lat="43.79388" lon="7.0249">
        <ele>982</ele>
        <time>2011-12-08T08:22:14Z</time>
      </trkpt>
      <trkpt lat="43.7939" lon="7.0246">
        <ele>991</ele>
        <time>2011-12-08T08:22:44Z</time>
      </trkpt>
      <trkpt lat="43.79391" lon="7.02444">
        <ele>1002</ele>
        <time>2011-12-08T08:22:59Z</time>
      </trkpt>
      <trkpt lat="43.7939" lon="7.02437">
        <ele>997</ele>
        <time>2011-12-08T08:23:14Z</time>
      </trkpt>
      <trkpt lat="43.79393" lon="7.02425">
        <ele>993</ele>
        <time>2011-12-08T08:23:29Z</time>
      </trkpt>
      <trkpt lat="43.79404" lon="7.02417">
        <ele>998</ele>
        <time>2011-12-08T08:23:44Z</time>
      </trkpt>
      <trkpt lat="43.79405" lon="7.02412">
        <ele>1005</ele>
        <time>2011-12-08T08:24:00Z</time>
      </trkpt>
      <trkpt lat="43.79405" lon="7.02385">
        <ele>1002</ele>
        <time>2011-12-08T08:24:30Z</time>
      </trkpt>
      <trkpt lat="43.79405" lon="7.02377">
        <ele>1009</ele>
        <time>2011-12-08T08:24:45Z</time>
      </trkpt>
      <trkpt lat="43.7941" lon="7.02359">
        <ele>1024</ele>
        <time>2011-12-08T08:25:00Z</time>
      </trkpt>
      <trkpt lat="43.79409" lon="7.02337">
        <ele>1013</ele>
        <time>2011-12-08T08:25:30Z</time>
      </trkpt>
      <trkpt lat="43.7941" lon="7.02319">
        <ele>1015</ele>
        <time>2011-12-08T08:25:46Z</time>
      </trkpt>
      <trkpt lat="43.79415" lon="7.02304">
        <ele>1001</ele>
        <time>2011-12-08T08:26:01Z</time>
      </trkpt>
      <trkpt lat="43.79414" lon="7.02281">
        <ele>1010</ele>
        <time>2011-12-08T08:26:16Z</time>
      </trkpt>
      <trkpt lat="43.79421" lon="7.02262">
        <ele>1008</ele>
        <time>2011-12-08T08:26:31Z</time>
      </trkpt>
      <trkpt lat="43.79419" lon="7.02239">
        <ele>1021</ele>
        <time>2011-12-08T08:26:46Z</time>
      </trkpt>
      <trkpt lat="43.79425" lon="7.02224">
        <ele>1011</ele>
        <time>2011-12-08T08:27:01Z</time>
      </trkpt>
      <trkpt lat="43.79432" lon="7.02209">
        <ele>1019</ele>
        <time>2011-12-08T08:27:16Z</time>
      </trkpt>
      <trkpt lat="43.79464" lon="7.02174">
        <ele>1018</ele>
        <time>2011-12-08T08:27:48Z</time>
      </trkpt>
      <trkpt lat="43.79443" lon="7.02152">
        <ele>1011</ele>
        <time>2011-12-08T08:28:19Z</time>
      </trkpt>
      <trkpt lat="43.79441" lon="7.02123">
        <ele>1007</ele>
        <time>2011-12-08T08:28:49Z</time>
      </trkpt>
      <trkpt lat="43.79452" lon="7.02113">
        <ele>1025</ele>
        <time>2011-12-08T08:29:04Z</time>
      </trkpt>
      <trkpt lat="43.7946" lon="7.02097">
        <ele>1007</ele>
        <time>2011-12-08T08:29:19Z</time>
      </trkpt>
      <trkpt lat="43.79454" lon="7.02073">
        <ele>1019</ele>
        <time>2011-12-08T08:29:49Z</time>
      </trkpt>
      <trkpt lat="43.79449" lon="7.02058">
        <ele>1029</ele>
        <time>2011-12-08T08:30:05Z</time>
      </trkpt>
      <trkpt lat="43.79447" lon="7.02047">
        <ele>1059</ele>
        <time>2011-12-08T08:30:35Z</time>
      </trkpt>
      <trkpt lat="43.79458" lon="7.02033">
        <ele>1025</ele>
        <time>2011-12-08T08:31:05Z</time>
      </trkpt>
      <trkpt lat="43.79454" lon="7.02025">
        <ele>1032</ele>
        <time>2011-12-08T08:31:35Z</time>
      </trkpt>
      <trkpt lat="43.79449" lon="7.02002">
        <ele>1041</ele>
        <time>2011-12-08T08:31:50Z</time>
      </trkpt>
      <trkpt lat="43.79452" lon="7.01981">
        <ele>1034</ele>
        <time>2011-12-08T08:32:21Z</time>
      </trkpt>
      <trkpt lat="43.79453" lon="7.01961">
        <ele>1039</ele>
        <time>2011-12-08T08:32:51Z</time>
      </trkpt>
      <trkpt lat="43.7946" lon="7.01951">
        <ele>1022</ele>
        <time>2011-12-08T08:33:06Z</time>
      </trkpt>
      <trkpt lat="43.79453" lon="7.01918">
        <ele>1036</ele>
        <time>2011-12-08T08:33:51Z</time>
      </trkpt>
      <trkpt lat="43.79458" lon="7.01891">
        <ele>1037</ele>
        <time>2011-12-08T08:34:22Z</time>
      </trkpt>
      <trkpt lat="43.79455" lon="7.01855">
        <ele>1055</ele>
        <time>2011-12-08T08:35:22Z</time>
      </trkpt>
      <trkpt lat="43.79452" lon="7.01847">
        <ele>1040</ele>
        <time>2011-12-08T08:36:08Z</time>
      </trkpt>
      <trkpt lat="43.79448" lon="7.01827">
        <ele>1045</ele>
        <time>2011-12-08T08:36:38Z</time>
      </trkpt>
      <trkpt lat="43.79453" lon="7.01804">
        <ele>1055</ele>
        <time>2011-12-08T08:37:08Z</time>
      </trkpt>
      <trkpt lat="43.79461" lon="7.01792">
        <ele>1060</ele>
        <time>2011-12-08T08:37:23Z</time>
      </trkpt>
      <trkpt lat="43.79464" lon="7.01776">
        <ele>1056</ele>
        <time>2011-12-08T08:37:38Z</time>
      </trkpt>
      <trkpt lat="43.79476" lon="7.01758">
        <ele>1060</ele>
        <time>2011-12-08T08:38:09Z</time>
      </trkpt>
      <trkpt lat="43.79479" lon="7.0174">
        <ele>1062</ele>
        <time>2011-12-08T08:38:24Z</time>
      </trkpt>
      <trkpt lat="43.79492" lon="7.01721">
        <ele>1071</ele>
        <time>2011-12-08T08:38:54Z</time>
      </trkpt>
      <trkpt lat="43.7949" lon="7.01718">
        <ele>1079</ele>
        <time>2011-12-08T08:39:09Z</time>
      </trkpt>
      <trkpt lat="43.79503" lon="7.01707">
        <ele>1072</ele>
        <time>2011-12-08T08:39:55Z</time>
      </trkpt>
      <trkpt lat="43.79515" lon="7.01705">
        <ele>1077</ele>
        <time>2011-12-08T08:40:10Z</time>
      </trkpt>
      <trkpt lat="43.79524" lon="7.01703">
        <ele>1073</ele>
        <time>2011-12-08T08:40:25Z</time>
      </trkpt>
      <trkpt lat="43.7953" lon="7.01688">
        <ele>1079</ele>
        <time>2011-12-08T08:40:40Z</time>
      </trkpt>
      <trkpt lat="43.79541" lon="7.01647">
        <ele>1083</ele>
        <time>2011-12-08T08:41:10Z</time>
      </trkpt>
      <trkpt lat="43.79543" lon="7.01624">
        <ele>1073</ele>
        <time>2011-12-08T08:41:26Z</time>
      </trkpt>
      <trkpt lat="43.79553" lon="7.01587">
        <ele>1082</ele>
        <time>2011-12-08T08:41:56Z</time>
      </trkpt>
      <trkpt lat="43.79563" lon="7.01573">
        <ele>1081</ele>
        <time>2011-12-08T08:42:11Z</time>
      </trkpt>
      <trkpt lat="43.79568" lon="7.01556">
        <ele>1081</ele>
        <time>2011-12-08T08:42:26Z</time>
      </trkpt>
      <trkpt lat="43.79577" lon="7.01545">
        <ele>1084</ele>
        <time>2011-12-08T08:42:41Z</time>
      </trkpt>
      <trkpt lat="43.79586" lon="7.01536">
        <ele>1079</ele>
        <time>2011-12-08T08:42:57Z</time>
      </trkpt>
      <trkpt lat="43.7959" lon="7.01528">
        <ele>1078</ele>
        <time>2011-12-08T08:43:12Z</time>
      </trkpt>
      <trkpt lat="43.79603" lon="7.01518">
        <ele>1082</ele>
        <time>2011-12-08T08:43:27Z</time>
      </trkpt>
      <trkpt lat="43.79612" lon="7.015">
        <ele>1088</ele>
        <time>2011-12-08T08:43:42Z</time>
      </trkpt>
      <trkpt lat="43.7962" lon="7.01486">
        <ele>1085</ele>
        <time>2011-12-08T08:43:57Z</time>
      </trkpt>
      <trkpt lat="43.79629" lon="7.01469">
        <ele>1092</ele>
        <time>2011-12-08T08:44:27Z</time>
      </trkpt>
      <trkpt lat="43.79638" lon="7.0146">
        <ele>1090</ele>
        <time>2011-12-08T08:44:43Z</time>
      </trkpt>
      <trkpt lat="43.79639" lon="7.01453">
        <ele>1093</ele>
        <time>2011-12-08T08:44:58Z</time>
      </trkpt>
      <trkpt lat="43.79645" lon="7.01445">
        <ele>1088</ele>
        <time>2011-12-08T08:45:13Z</time>
      </trkpt>
      <trkpt lat="43.79649" lon="7.01431">
        <ele>1090</ele>
        <time>2011-12-08T08:45:28Z</time>
      </trkpt>
      <trkpt lat="43.79653" lon="7.01408">
        <ele>1085</ele>
        <time>2011-12-08T08:45:43Z</time>
      </trkpt>
      <trkpt lat="43.79658" lon="7.01388">
        <ele>1088</ele>
        <time>2011-12-08T08:45:58Z</time>
      </trkpt>
      <trkpt lat="43.7966" lon="7.01385">
        <ele>1086</ele>
        <time>2011-12-08T08:46:28Z</time>
      </trkpt>
      <trkpt lat="43.7966" lon="7.01381">
        <ele>1086</ele>
        <time>2011-12-08T08:46:44Z</time>
      </trkpt>
      <trkpt lat="43.79658" lon="7.01381">
        <ele>1088</ele>
        <time>2011-12-08T08:47:59Z</time>
      </trkpt>
      <trkpt lat="43.79657" lon="7.01376">
        <ele>1090</ele>
        <time>2011-12-08T08:50:15Z</time>
      </trkpt>
      <trkpt lat="43.79659" lon="7.01373">
        <ele>1084</ele>
        <time>2011-12-08T08:50:31Z</time>
      </trkpt>
      <trkpt lat="43.79664" lon="7.01359">
        <ele>1090</ele>
        <time>2011-12-08T08:50:46Z</time>
      </trkpt>
      <trkpt lat="43.79671" lon="7.01352">
        <ele>1086</ele>
        <time>2011-12-08T08:51:16Z</time>
      </trkpt>
      <trkpt lat="43.79679" lon="7.01337">
        <ele>1092</ele>
        <time>2011-12-08T08:51:31Z</time>
      </trkpt>
      <trkpt lat="43.79689" lon="7.01315">
        <ele>1077</ele>
        <time>2011-12-08T08:51:46Z</time>
      </trkpt>
      <trkpt lat="43.79696" lon="7.0129">
        <ele>1084</ele>
        <time>2011-12-08T08:52:17Z</time>
      </trkpt>
      <trkpt lat="43.79703" lon="7.01283">
        <ele>1078</ele>
        <time>2011-12-08T08:52:32Z</time>
      </trkpt>
      <trkpt lat="43.79711" lon="7.01266">
        <ele>1081</ele>
        <time>2011-12-08T08:52:47Z</time>
      </trkpt>
      <trkpt lat="43.79713" lon="7.01246">
        <ele>1082</ele>
        <time>2011-12-08T08:53:02Z</time>
      </trkpt>
      <trkpt lat="43.79722" lon="7.01224">
        <ele>1082</ele>
        <time>2011-12-08T08:53:17Z</time>
      </trkpt>
      <trkpt lat="43.79727" lon="7.01207">
        <ele>1083</ele>
        <time>2011-12-08T08:53:32Z</time>
      </trkpt>
      <trkpt lat="43.79734" lon="7.01195">
        <ele>1079</ele>
        <time>2011-12-08T08:53:48Z</time>
      </trkpt>
      <trkpt lat="43.79744" lon="7.01192">
        <ele>1091</ele>
        <time>2011-12-08T08:54:18Z</time>
      </trkpt>
      <trkpt lat="43.79742" lon="7.01185">
        <ele>1095</ele>
        <time>2011-12-08T08:54:33Z</time>
      </trkpt>
      <trkpt lat="43.79737" lon="7.01144">
        <ele>1085</ele>
        <time>2011-12-08T08:55:03Z</time>
      </trkpt>
      <trkpt lat="43.79728" lon="7.01121">
        <ele>1084</ele>
        <time>2011-12-08T08:55:18Z</time>
      </trkpt>
      <trkpt lat="43.79724" lon="7.01099">
        <ele>1086</ele>
        <time>2011-12-08T08:55:34Z</time>
      </trkpt>
      <trkpt lat="43.79723" lon="7.01077">
        <ele>1082</ele>
        <time>2011-12-08T08:55:49Z</time>
      </trkpt>
      <trkpt lat="43.79728" lon="7.0104">
        <ele>1089</ele>
        <time>2011-12-08T08:56:19Z</time>
      </trkpt>
      <trkpt lat="43.79738" lon="7.01024">
        <ele>1086</ele>
        <time>2011-12-08T08:56:34Z</time>
      </trkpt>
      <trkpt lat="43.79743" lon="7.01008">
        <ele>1089</ele>
        <time>2011-12-08T08:56:49Z</time>
      </trkpt>
      <trkpt lat="43.79746" lon="7.00994">
        <ele>1090</ele>
        <time>2011-12-08T08:57:20Z</time>
      </trkpt>
      <trkpt lat="43.79739" lon="7.00981">
        <ele>1087</ele>
        <time>2011-12-08T08:58:20Z</time>
      </trkpt>
      <trkpt lat="43.7974" lon="7.00952">
        <ele>1083</ele>
        <time>2011-12-08T08:58:50Z</time>
      </trkpt>
      <trkpt lat="43.79737" lon="7.00938">
        <ele>1072</ele>
        <time>2011-12-08T08:59:05Z</time>
      </trkpt>
      <trkpt lat="43.79741" lon="7.00913">
        <ele>1068</ele>
        <time>2011-12-08T08:59:21Z</time>
      </trkpt>
      <trkpt lat="43.79744" lon="7.00899">
        <ele>1072</ele>
        <time>2011-12-08T08:59:36Z</time>
      </trkpt>
      <trkpt lat="43.79745" lon="7.00885">
        <ele>1071</ele>
        <time>2011-12-08T08:59:51Z</time>
      </trkpt>
      <trkpt lat="43.79739" lon="7.00875">
        <ele>1064</ele>
        <time>2011-12-08T09:00:06Z</time>
      </trkpt>
      <trkpt lat="43.79727" lon="7.0086">
        <ele>1072</ele>
        <time>2011-12-08T09:00:36Z</time>
      </trkpt>
      <trkpt lat="43.79729" lon="7.00845">
        <ele>1059</ele>
        <time>2011-12-08T09:00:52Z</time>
      </trkpt>
      <trkpt lat="43.79735" lon="7.00824">
        <ele>1061</ele>
        <time>2011-12-08T09:01:07Z</time>
      </trkpt>
      <trkpt lat="43.79731" lon="7.008">
        <ele>1063</ele>
        <time>2011-12-08T09:01:22Z</time>
      </trkpt>
      <trkpt lat="43.79729" lon="7.00764">
        <ele>1059</ele>
        <time>2011-12-08T09:01:52Z</time>
      </trkpt>
      <trkpt lat="43.79726" lon="7.00736">
        <ele>1050</ele>
        <time>2011-12-08T09:02:22Z</time>
      </trkpt>
      <trkpt lat="43.79735" lon="7.00715">
        <ele>1048</ele>
        <time>2011-12-08T09:02:38Z</time>
      </trkpt>
      <trkpt lat="43.79748" lon="7.00679">
        <ele>1062</ele>
        <time>2011-12-08T09:03:08Z</time>
      </trkpt>
      <trkpt lat="43.79753" lon="7.00642">
        <ele>1055</ele>
        <time>2011-12-08T09:03:38Z</time>
      </trkpt>
      <trkpt lat="43.79761" lon="7.00603">
        <ele>1028</ele>
        <time>2011-12-08T09:04:24Z</time>
      </trkpt>
      <trkpt lat="43.79764" lon="7.00595">
        <ele>1028</ele>
        <time>2011-12-08T09:04:39Z</time>
      </trkpt>
      <trkpt lat="43.79763" lon="7.00579">
        <ele>1034</ele>
        <time>2011-12-08T09:04:54Z</time>
      </trkpt>
      <trkpt lat="43.79775" lon="7.00564">
        <ele>1029</ele>
        <time>2011-12-08T09:05:24Z</time>
      </trkpt>
      <trkpt lat="43.79778" lon="7.00557">
        <ele>1017</ele>
        <time>2011-12-08T09:05:39Z</time>
      </trkpt>
      <trkpt lat="43.79784" lon="7.00546">
        <ele>1031</ele>
        <time>2011-12-08T09:05:54Z</time>
      </trkpt>
      <trkpt lat="43.79787" lon="7.00528">
        <ele>1021</ele>
        <time>2011-12-08T09:06:09Z</time>
      </trkpt>
      <trkpt lat="43.79794" lon="7.00497">
        <ele>1036</ele>
        <time>2011-12-08T09:06:40Z</time>
      </trkpt>
      <trkpt lat="43.79799" lon="7.00485">
        <ele>1015</ele>
        <time>2011-12-08T09:06:55Z</time>
      </trkpt>
      <trkpt lat="43.798" lon="7.00455">
        <ele>1048</ele>
        <time>2011-12-08T09:07:25Z</time>
      </trkpt>
      <trkpt lat="43.79804" lon="7.00436">
        <ele>1052</ele>
        <time>2011-12-08T09:07:40Z</time>
      </trkpt>
      <trkpt lat="43.7981" lon="7.0041">
        <ele>1044</ele>
        <time>2011-12-08T09:07:55Z</time>
      </trkpt>
      <trkpt lat="43.79819" lon="7.00392">
        <ele>1046</ele>
        <time>2011-12-08T09:08:11Z</time>
      </trkpt>
      <trkpt lat="43.79828" lon="7.00374">
        <ele>1043</ele>
        <time>2011-12-08T09:08:26Z</time>
      </trkpt>
      <trkpt lat="43.79836" lon="7.0036">
        <ele>1043</ele>
        <time>2011-12-08T09:08:41Z</time>
      </trkpt>
      <trkpt lat="43.79841" lon="7.0033">
        <ele>1028</ele>
        <time>2011-12-08T09:09:11Z</time>
      </trkpt>
      <trkpt lat="43.79845" lon="7.00312">
        <ele>1036</ele>
        <time>2011-12-08T09:09:42Z</time>
      </trkpt>
      <trkpt lat="43.79844" lon="7.00303">
        <ele>1032</ele>
        <time>2011-12-08T09:10:12Z</time>
      </trkpt>
      <trkpt lat="43.79845" lon="7.00294">
        <ele>1017</ele>
        <time>2011-12-08T09:10:27Z</time>
      </trkpt>
      <trkpt lat="43.79849" lon="7.00284">
        <ele>1010</ele>
        <time>2011-12-08T09:10:57Z</time>
      </trkpt>
      <trkpt lat="43.79841" lon="7.00279">
        <ele>996</ele>
        <time>2011-12-08T09:11:27Z</time>
      </trkpt>
      <trkpt lat="43.79836" lon="7.00283">
        <ele>994</ele>
        <time>2011-12-08T09:11:43Z</time>
      </trkpt>
      <trkpt lat="43.79832" lon="7.00257">
        <ele>1017</ele>
        <time>2011-12-08T09:12:13Z</time>
      </trkpt>
      <trkpt lat="43.79825" lon="7.0026">
        <ele>992</ele>
        <time>2011-12-08T09:12:43Z</time>
      </trkpt>
      <trkpt lat="43.79808" lon="7.0027">
        <ele>985</ele>
        <time>2011-12-08T09:12:58Z</time>
      </trkpt>
      <trkpt lat="43.79804" lon="7.00252">
        <ele>992</ele>
        <time>2011-12-08T09:13:29Z</time>
      </trkpt>
      <trkpt lat="43.79808" lon="7.00235">
        <ele>994</ele>
        <time>2011-12-08T09:13:44Z</time>
      </trkpt>
      <trkpt lat="43.79811" lon="7.00221">
        <ele>987</ele>
        <time>2011-12-08T09:13:59Z</time>
      </trkpt>
      <trkpt lat="43.79826" lon="7.00206">
        <ele>995</ele>
        <time>2011-12-08T09:14:29Z</time>
      </trkpt>
      <trkpt lat="43.79827" lon="7.00183">
        <ele>973</ele>
        <time>2011-12-08T09:15:15Z</time>
      </trkpt>
      <trkpt lat="43.79824" lon="7.00172">
        <ele>983</ele>
        <time>2011-12-08T09:16:00Z</time>
      </trkpt>
      <trkpt lat="43.79826" lon="7.00164">
        <ele>963</ele>
        <time>2011-12-08T09:16:15Z</time>
      </trkpt>
      <trkpt lat="43.79823" lon="7.0015">
        <ele>971</ele>
        <time>2011-12-08T09:16:30Z</time>
      </trkpt>
      <trkpt lat="43.79808" lon="7.0014">
        <ele>952</ele>
        <time>2011-12-08T09:17:16Z</time>
      </trkpt>
      <trkpt lat="43.79802" lon="7.00151">
        <ele>949</ele>
        <time>2011-12-08T09:17:31Z</time>
      </trkpt>
      <trkpt lat="43.79801" lon="7.00126">
        <ele>965</ele>
        <time>2011-12-08T09:18:01Z</time>
      </trkpt>
      <trkpt lat="43.79799" lon="7.00098">
        <ele>945</ele>
        <time>2011-12-08T09:18:31Z</time>
      </trkpt>
      <trkpt lat="43.79798" lon="7.00072">
        <ele>946</ele>
        <time>2011-12-08T09:19:02Z</time>
      </trkpt>
      <trkpt lat="43.798" lon="7.00044">
        <ele>937</ele>
        <time>2011-12-08T09:19:47Z</time>
      </trkpt>
      <trkpt lat="43.79795" lon="7.00031">
        <ele>936</ele>
        <time>2011-12-08T09:20:16Z</time>
      </trkpt>
      <trkpt lat="43.79786" lon="7.00008">
        <ele>926</ele>
        <time>2011-12-08T09:20:47Z</time>
      </trkpt>
      <trkpt lat="43.79787" lon="6.99985">
        <ele>931</ele>
        <time>2011-12-08T09:21:32Z</time>
      </trkpt>
      <trkpt lat="43.79794" lon="6.9998">
        <ele>945</ele>
        <time>2011-12-08T09:22:32Z</time>
      </trkpt>
      <trkpt lat="43.79795" lon="6.99968">
        <ele>932</ele>
        <time>2011-12-08T09:23:33Z</time>
      </trkpt>
      <trkpt lat="43.79797" lon="6.99962">
        <ele>930</ele>
        <time>2011-12-08T09:24:18Z</time>
      </trkpt>
      <trkpt lat="43.79796" lon="6.99941">
        <ele>917</ele>
        <time>2011-12-08T09:24:34Z</time>
      </trkpt>
      <trkpt lat="43.79792" lon="6.99938">
        <ele>946</ele>
        <time>2011-12-08T09:25:04Z</time>
      </trkpt>
      <trkpt lat="43.79796" lon="6.99905">
        <ele>921</ele>
        <time>2011-12-08T09:25:34Z</time>
      </trkpt>
      <trkpt lat="43.79795" lon="6.99889">
        <ele>922</ele>
        <time>2011-12-08T09:25:49Z</time>
      </trkpt>
      <trkpt lat="43.79805" lon="6.99858">
        <ele>921</ele>
        <time>2011-12-08T09:26:19Z</time>
      </trkpt>
      <trkpt lat="43.79808" lon="6.99841">
        <ele>917</ele>
        <time>2011-12-08T09:26:35Z</time>
      </trkpt>
      <trkpt lat="43.7981" lon="6.99816">
        <ele>908</ele>
        <time>2011-12-08T09:27:05Z</time>
      </trkpt>
      <trkpt lat="43.79813" lon="6.99797">
        <ele>909</ele>
        <time>2011-12-08T09:27:20Z</time>
      </trkpt>
      <trkpt lat="43.79812" lon="6.99774">
        <ele>903</ele>
        <time>2011-12-08T09:27:35Z</time>
      </trkpt>
      <trkpt lat="43.7982" lon="6.99751">
        <ele>917</ele>
        <time>2011-12-08T09:28:06Z</time>
      </trkpt>
      <trkpt lat="43.79823" lon="6.99742">
        <ele>913</ele>
        <time>2011-12-08T09:28:21Z</time>
      </trkpt>
      <trkpt lat="43.79831" lon="6.99723">
        <ele>914</ele>
        <time>2011-12-08T09:29:06Z</time>
      </trkpt>
      <trkpt lat="43.79842" lon="6.99694">
        <ele>923</ele>
        <time>2011-12-08T09:29:36Z</time>
      </trkpt>
      <trkpt lat="43.79844" lon="6.99676">
        <ele>917</ele>
        <time>2011-12-08T09:29:51Z</time>
      </trkpt>
      <trkpt lat="43.79853" lon="6.99657">
        <ele>918</ele>
        <time>2011-12-08T09:30:07Z</time>
      </trkpt>
      <trkpt lat="43.79864" lon="6.99641">
        <ele>928</ele>
        <time>2011-12-08T09:30:22Z</time>
      </trkpt>
      <trkpt lat="43.79863" lon="6.99628">
        <ele>939</ele>
        <time>2011-12-08T09:30:37Z</time>
      </trkpt>
      <trkpt lat="43.79856" lon="6.99605">
        <ele>945</ele>
        <time>2011-12-08T09:30:52Z</time>
      </trkpt>
      <trkpt lat="43.79859" lon="6.99585">
        <ele>946</ele>
        <time>2011-12-08T09:31:07Z</time>
      </trkpt>
      <trkpt lat="43.79858" lon="6.99565">
        <ele>951</ele>
        <time>2011-12-08T09:31:22Z</time>
      </trkpt>
      <trkpt lat="43.79861" lon="6.99531">
        <ele>930</ele>
        <time>2011-12-08T09:31:53Z</time>
      </trkpt>
      <trkpt lat="43.79862" lon="6.99513">
        <ele>932</ele>
        <time>2011-12-08T09:32:08Z</time>
      </trkpt>
      <trkpt lat="43.79863" lon="6.99494">
        <ele>926</ele>
        <time>2011-12-08T09:32:23Z</time>
      </trkpt>
      <trkpt lat="43.79868" lon="6.99474">
        <ele>926</ele>
        <time>2011-12-08T09:32:38Z</time>
      </trkpt>
      <trkpt lat="43.79864" lon="6.99453">
        <ele>931</ele>
        <time>2011-12-08T09:32:53Z</time>
      </trkpt>
      <trkpt lat="43.79865" lon="6.99432">
        <ele>932</ele>
        <time>2011-12-08T09:33:09Z</time>
      </trkpt>
      <trkpt lat="43.79862" lon="6.99423">
        <ele>932</ele>
        <time>2011-12-08T09:33:24Z</time>
      </trkpt>
      <trkpt lat="43.7986" lon="6.99417">
        <ele>930</ele>
        <time>2011-12-08T09:33:39Z</time>
      </trkpt>
      <trkpt lat="43.79851" lon="6.99394">
        <ele>926</ele>
        <time>2011-12-08T09:34:24Z</time>
      </trkpt>
      <trkpt lat="43.79847" lon="6.99389">
        <ele>934</ele>
        <time>2011-12-08T09:41:58Z</time>
      </trkpt>
      <trkpt lat="43.79841" lon="6.99379">
        <ele>935</ele>
        <time>2011-12-08T09:44:29Z</time>
      </trkpt>
      <trkpt lat="43.79844" lon="6.9937">
        <ele>929</ele>
        <time>2011-12-08T09:44:44Z</time>
      </trkpt>
      <trkpt lat="43.79842" lon="6.99353">
        <ele>933</ele>
        <time>2011-12-08T09:44:59Z</time>
      </trkpt>
      <trkpt lat="43.79845" lon="6.99344">
        <ele>938</ele>
        <time>2011-12-08T09:45:15Z</time>
      </trkpt>
      <trkpt lat="43.79845" lon="6.99334">
        <ele>938</ele>
        <time>2011-12-08T09:45:30Z</time>
      </trkpt>
      <trkpt lat="43.79838" lon="6.99314">
        <ele>935</ele>
        <time>2011-12-08T09:45:45Z</time>
      </trkpt>
      <trkpt lat="43.79832" lon="6.99294">
        <ele>936</ele>
        <time>2011-12-08T09:46:00Z</time>
      </trkpt>
      <trkpt lat="43.79834" lon="6.99278">
        <ele>935</ele>
        <time>2011-12-08T09:46:15Z</time>
      </trkpt>
      <trkpt lat="43.79828" lon="6.99264">
        <ele>944</ele>
        <time>2011-12-08T09:46:30Z</time>
      </trkpt>
      <trkpt lat="43.79831" lon="6.99249">
        <ele>935</ele>
        <time>2011-12-08T09:46:45Z</time>
      </trkpt>
      <trkpt lat="43.79834" lon="6.99236">
        <ele>939</ele>
        <time>2011-12-08T09:47:01Z</time>
      </trkpt>
      <trkpt lat="43.79831" lon="6.9922">
        <ele>928</ele>
        <time>2011-12-08T09:47:16Z</time>
      </trkpt>
      <trkpt lat="43.79828" lon="6.99198">
        <ele>933</ele>
        <time>2011-12-08T09:47:46Z</time>
      </trkpt>
      <trkpt lat="43.79828" lon="6.99175">
        <ele>928</ele>
        <time>2011-12-08T09:48:01Z</time>
      </trkpt>
      <trkpt lat="43.79834" lon="6.99145">
        <ele>930</ele>
        <time>2011-12-08T09:48:31Z</time>
      </trkpt>
      <trkpt lat="43.79834" lon="6.99128">
        <ele>926</ele>
        <time>2011-12-08T09:48:47Z</time>
      </trkpt>
      <trkpt lat="43.79835" lon="6.99115">
        <ele>927</ele>
        <time>2011-12-08T09:49:02Z</time>
      </trkpt>
      <trkpt lat="43.79834" lon="6.99104">
        <ele>924</ele>
        <time>2011-12-08T09:49:17Z</time>
      </trkpt>
      <trkpt lat="43.79844" lon="6.99112">
        <ele>918</ele>
        <time>2011-12-08T09:49:47Z</time>
      </trkpt>
      <trkpt lat="43.79855" lon="6.99137">
        <ele>929</ele>
        <time>2011-12-08T09:50:18Z</time>
      </trkpt>
      <trkpt lat="43.79858" lon="6.99143">
        <ele>935</ele>
        <time>2011-12-08T09:50:33Z</time>
      </trkpt>
      <trkpt lat="43.79866" lon="6.99152">
        <ele>927</ele>
        <time>2011-12-08T09:50:48Z</time>
      </trkpt>
      <trkpt lat="43.7987" lon="6.9916">
        <ele>928</ele>
        <time>2011-12-08T09:51:03Z</time>
      </trkpt>
      <trkpt lat="43.79876" lon="6.99184">
        <ele>935</ele>
        <time>2011-12-08T09:51:33Z</time>
      </trkpt>
      <trkpt lat="43.79887" lon="6.99196">
        <ele>939</ele>
        <time>2011-12-08T09:51:48Z</time>
      </trkpt>
      <trkpt lat="43.799" lon="6.99216">
        <ele>924</ele>
        <time>2011-12-08T09:52:19Z</time>
      </trkpt>
      <trkpt lat="43.79907" lon="6.99229">
        <ele>941</ele>
        <time>2011-12-08T09:52:34Z</time>
      </trkpt>
      <trkpt lat="43.79911" lon="6.99239">
        <ele>936</ele>
        <time>2011-12-08T09:52:49Z</time>
      </trkpt>
      <trkpt lat="43.7992" lon="6.99259">
        <ele>949</ele>
        <time>2011-12-08T09:53:19Z</time>
      </trkpt>
      <trkpt lat="43.79922" lon="6.99272">
        <ele>950</ele>
        <time>2011-12-08T09:53:34Z</time>
      </trkpt>
      <trkpt lat="43.7993" lon="6.99281">
        <ele>950</ele>
        <time>2011-12-08T09:53:49Z</time>
      </trkpt>
      <trkpt lat="43.79939" lon="6.99288">
        <ele>953</ele>
        <time>2011-12-08T09:54:05Z</time>
      </trkpt>
      <trkpt lat="43.79946" lon="6.99293">
        <ele>952</ele>
        <time>2011-12-08T09:54:20Z</time>
      </trkpt>
      <trkpt lat="43.79956" lon="6.99296">
        <ele>958</ele>
        <time>2011-12-08T09:54:35Z</time>
      </trkpt>
      <trkpt lat="43.79967" lon="6.99302">
        <ele>958</ele>
        <time>2011-12-08T09:54:50Z</time>
      </trkpt>
      <trkpt lat="43.79972" lon="6.9929">
        <ele>966</ele>
        <time>2011-12-08T09:55:05Z</time>
      </trkpt>
      <trkpt lat="43.79977" lon="6.99289">
        <ele>965</ele>
        <time>2011-12-08T09:55:20Z</time>
      </trkpt>
      <trkpt lat="43.79986" lon="6.99298">
        <ele>968</ele>
        <time>2011-12-08T09:55:36Z</time>
      </trkpt>
      <trkpt lat="43.79994" lon="6.99299">
        <ele>967</ele>
        <time>2011-12-08T09:55:51Z</time>
      </trkpt>
      <trkpt lat="43.80005" lon="6.99304">
        <ele>970</ele>
        <time>2011-12-08T09:56:06Z</time>
      </trkpt>
      <trkpt lat="43.80014" lon="6.99309">
        <ele>966</ele>
        <time>2011-12-08T09:56:21Z</time>
      </trkpt>
      <trkpt lat="43.80023" lon="6.99317">
        <ele>969</ele>
        <time>2011-12-08T09:56:36Z</time>
      </trkpt>
      <trkpt lat="43.80026" lon="6.99323">
        <ele>964</ele>
        <time>2011-12-08T09:56:51Z</time>
      </trkpt>
      <trkpt lat="43.80017" lon="6.99339">
        <ele>976</ele>
        <time>2011-12-08T09:57:22Z</time>
      </trkpt>
      <trkpt lat="43.80024" lon="6.99363">
        <ele>976</ele>
        <time>2011-12-08T09:57:52Z</time>
      </trkpt>
      <trkpt lat="43.8002" lon="6.99388">
        <ele>980</ele>
        <time>2011-12-08T09:58:22Z</time>
      </trkpt>
      <trkpt lat="43.80021" lon="6.99403">
        <ele>985</ele>
        <time>2011-12-08T09:58:37Z</time>
      </trkpt>
      <trkpt lat="43.80017" lon="6.99415">
        <ele>992</ele>
        <time>2011-12-08T09:58:52Z</time>
      </trkpt>
      <trkpt lat="43.80023" lon="6.99435">
        <ele>994</ele>
        <time>2011-12-08T09:59:23Z</time>
      </trkpt>
      <trkpt lat="43.80023" lon="6.99452">
        <ele>990</ele>
        <time>2011-12-08T10:00:08Z</time>
      </trkpt>
      <trkpt lat="43.80021" lon="6.99467">
        <ele>997</ele>
        <time>2011-12-08T10:00:23Z</time>
      </trkpt>
      <trkpt lat="43.80017" lon="6.9949">
        <ele>998</ele>
        <time>2011-12-08T10:00:53Z</time>
      </trkpt>
      <trkpt lat="43.80012" lon="6.99501">
        <ele>1003</ele>
        <time>2011-12-08T10:01:08Z</time>
      </trkpt>
      <trkpt lat="43.8" lon="6.99513">
        <ele>999</ele>
        <time>2011-12-08T10:01:24Z</time>
      </trkpt>
      <trkpt lat="43.80013" lon="6.99528">
        <ele>1006</ele>
        <time>2011-12-08T10:01:39Z</time>
      </trkpt>
      <trkpt lat="43.8002" lon="6.99554">
        <ele>1003</ele>
        <time>2011-12-08T10:02:09Z</time>
      </trkpt>
      <trkpt lat="43.80029" lon="6.99545">
        <ele>1008</ele>
        <time>2011-12-08T10:02:24Z</time>
      </trkpt>
      <trkpt lat="43.80036" lon="6.99555">
        <ele>1016</ele>
        <time>2011-12-08T10:03:25Z</time>
      </trkpt>
      <trkpt lat="43.80046" lon="6.9955">
        <ele>1012</ele>
        <time>2011-12-08T10:03:40Z</time>
      </trkpt>
      <trkpt lat="43.80042" lon="6.9954">
        <ele>1027</ele>
        <time>2011-12-08T10:04:55Z</time>
      </trkpt>
      <trkpt lat="43.80054" lon="6.99531">
        <ele>1024</ele>
        <time>2011-12-08T10:06:11Z</time>
      </trkpt>
      <trkpt lat="43.8006" lon="6.99528">
        <ele>1025</ele>
        <time>2011-12-08T10:06:26Z</time>
      </trkpt>
      <trkpt lat="43.8007" lon="6.99521">
        <ele>1016</ele>
        <time>2011-12-08T10:06:56Z</time>
      </trkpt>
      <trkpt lat="43.80077" lon="6.99518">
        <ele>1019</ele>
        <time>2011-12-08T10:07:27Z</time>
      </trkpt>
      <trkpt lat="43.80092" lon="6.9952">
        <ele>1024</ele>
        <time>2011-12-08T10:07:57Z</time>
      </trkpt>
      <trkpt lat="43.80109" lon="6.99524">
        <ele>1039</ele>
        <time>2011-12-08T10:08:27Z</time>
      </trkpt>
      <trkpt lat="43.80115" lon="6.99527">
        <ele>1045</ele>
        <time>2011-12-08T10:08:42Z</time>
      </trkpt>
      <trkpt lat="43.8012" lon="6.99526">
        <ele>1032</ele>
        <time>2011-12-08T10:09:13Z</time>
      </trkpt>
      <trkpt lat="43.80119" lon="6.99539">
        <ele>1046</ele>
        <time>2011-12-08T10:09:43Z</time>
      </trkpt>
      <trkpt lat="43.80143" lon="6.99552">
        <ele>1035</ele>
        <time>2011-12-08T10:10:13Z</time>
      </trkpt>
      <trkpt lat="43.80167" lon="6.99575">
        <ele>1056</ele>
        <time>2011-12-08T10:10:59Z</time>
      </trkpt>
      <trkpt lat="43.80186" lon="6.99592">
        <ele>1052</ele>
        <time>2011-12-08T10:11:29Z</time>
      </trkpt>
      <trkpt lat="43.80194" lon="6.99605">
        <ele>1055</ele>
        <time>2011-12-08T10:11:44Z</time>
      </trkpt>
      <trkpt lat="43.80203" lon="6.99639">
        <ele>1044</ele>
        <time>2011-12-08T10:12:14Z</time>
      </trkpt>
      <trkpt lat="43.80204" lon="6.99676">
        <ele>1047</ele>
        <time>2011-12-08T10:12:45Z</time>
      </trkpt>
      <trkpt lat="43.80204" lon="6.99696">
        <ele>1058</ele>
        <time>2011-12-08T10:13:00Z</time>
      </trkpt>
      <trkpt lat="43.80213" lon="6.99724">
        <ele>1050</ele>
        <time>2011-12-08T10:13:30Z</time>
      </trkpt>
      <trkpt lat="43.80223" lon="6.9974">
        <ele>1053</ele>
        <time>2011-12-08T10:13:45Z</time>
      </trkpt>
      <trkpt lat="43.80244" lon="6.9977">
        <ele>1044</ele>
        <time>2011-12-08T10:14:16Z</time>
      </trkpt>
      <trkpt lat="43.80253" lon="6.9978">
        <ele>1048</ele>
        <time>2011-12-08T10:14:31Z</time>
      </trkpt>
      <trkpt lat="43.80257" lon="6.99794">
        <ele>1054</ele>
        <time>2011-12-08T10:14:46Z</time>
      </trkpt>
      <trkpt lat="43.80259" lon="6.99812">
        <ele>1057</ele>
        <time>2011-12-08T10:15:01Z</time>
      </trkpt>
      <trkpt lat="43.80264" lon="6.9983">
        <ele>1047</ele>
        <time>2011-12-08T10:15:16Z</time>
      </trkpt>
      <trkpt lat="43.8027" lon="6.99845">
        <ele>1046</ele>
        <time>2011-12-08T10:15:31Z</time>
      </trkpt>
      <trkpt lat="43.80281" lon="6.99863">
        <ele>1045</ele>
        <time>2011-12-08T10:15:46Z</time>
      </trkpt>
      <trkpt lat="43.80278" lon="6.99869">
        <ele>1047</ele>
        <time>2011-12-08T10:16:02Z</time>
      </trkpt>
      <trkpt lat="43.80268" lon="6.99893">
        <ele>1053</ele>
        <time>2011-12-08T10:16:32Z</time>
      </trkpt>
      <trkpt lat="43.8026" lon="6.99909">
        <ele>1053</ele>
        <time>2011-12-08T10:16:47Z</time>
      </trkpt>
      <trkpt lat="43.80249" lon="6.99925">
        <ele>1053</ele>
        <time>2011-12-08T10:17:02Z</time>
      </trkpt>
      <trkpt lat="43.8024" lon="6.99948">
        <ele>1054</ele>
        <time>2011-12-08T10:17:17Z</time>
      </trkpt>
      <trkpt lat="43.8024" lon="6.99968">
        <ele>1053</ele>
        <time>2011-12-08T10:17:32Z</time>
      </trkpt>
      <trkpt lat="43.8023" lon="7.00008">
        <ele>1060</ele>
        <time>2011-12-08T10:18:03Z</time>
      </trkpt>
      <trkpt lat="43.80228" lon="7.00016">
        <ele>1051</ele>
        <time>2011-12-08T10:18:31Z</time>
      </trkpt>
      <trkpt lat="43.80219" lon="7.00023">
        <ele>1055</ele>
        <time>2011-12-08T10:19:02Z</time>
      </trkpt>
      <trkpt lat="43.80212" lon="7.0003">
        <ele>1047</ele>
        <time>2011-12-08T10:19:32Z</time>
      </trkpt>
      <trkpt lat="43.80192" lon="7.00049">
        <ele>1031</ele>
        <time>2011-12-08T10:20:18Z</time>
      </trkpt>
      <trkpt lat="43.80185" lon="7.00074">
        <ele>1031</ele>
        <time>2011-12-08T10:20:33Z</time>
      </trkpt>
      <trkpt lat="43.80169" lon="7.00117">
        <ele>1050</ele>
        <time>2011-12-08T10:21:03Z</time>
      </trkpt>
      <trkpt lat="43.80163" lon="7.00137">
        <ele>1042</ele>
        <time>2011-12-08T10:21:19Z</time>
      </trkpt>
      <trkpt lat="43.80165" lon="7.00157">
        <ele>1037</ele>
        <time>2011-12-08T10:21:34Z</time>
      </trkpt>
      <trkpt lat="43.80177" lon="7.00194">
        <ele>1046</ele>
        <time>2011-12-08T10:22:04Z</time>
      </trkpt>
      <trkpt lat="43.8018" lon="7.002">
        <ele>1036</ele>
        <time>2011-12-08T10:22:19Z</time>
      </trkpt>
      <trkpt lat="43.80193" lon="7.00228">
        <ele>1038</ele>
        <time>2011-12-08T10:22:50Z</time>
      </trkpt>
      <trkpt lat="43.80197" lon="7.00242">
        <ele>1044</ele>
        <time>2011-12-08T10:23:05Z</time>
      </trkpt>
      <trkpt lat="43.80203" lon="7.00262">
        <ele>1044</ele>
        <time>2011-12-08T10:23:20Z</time>
      </trkpt>
      <trkpt lat="43.80203" lon="7.00271">
        <ele>1036</ele>
        <time>2011-12-08T10:23:50Z</time>
      </trkpt>
      <trkpt lat="43.80206" lon="7.00289">
        <ele>1021</ele>
        <time>2011-12-08T10:24:05Z</time>
      </trkpt>
      <trkpt lat="43.80211" lon="7.00306">
        <ele>1029</ele>
        <time>2011-12-08T10:24:20Z</time>
      </trkpt>
      <trkpt lat="43.80213" lon="7.00331">
        <ele>1026</ele>
        <time>2011-12-08T10:24:36Z</time>
      </trkpt>
      <trkpt lat="43.80214" lon="7.00379">
        <ele>1040</ele>
        <time>2011-12-08T10:25:06Z</time>
      </trkpt>
      <trkpt lat="43.80212" lon="7.00401">
        <ele>1031</ele>
        <time>2011-12-08T10:25:21Z</time>
      </trkpt>
      <trkpt lat="43.80223" lon="7.00431">
        <ele>1043</ele>
        <time>2011-12-08T10:25:51Z</time>
      </trkpt>
      <trkpt lat="43.80227" lon="7.00451">
        <ele>1051</ele>
        <time>2011-12-08T10:26:22Z</time>
      </trkpt>
      <trkpt lat="43.80225" lon="7.00469">
        <ele>1049</ele>
        <time>2011-12-08T10:26:37Z</time>
      </trkpt>
      <trkpt lat="43.80219" lon="7.00505">
        <ele>1056</ele>
        <time>2011-12-08T10:27:07Z</time>
      </trkpt>
      <trkpt lat="43.80213" lon="7.00521">
        <ele>1052</ele>
        <time>2011-12-08T10:27:22Z</time>
      </trkpt>
      <trkpt lat="43.8021" lon="7.00538">
        <ele>1060</ele>
        <time>2011-12-08T10:27:38Z</time>
      </trkpt>
      <trkpt lat="43.80212" lon="7.00557">
        <ele>1061</ele>
        <time>2011-12-08T10:27:53Z</time>
      </trkpt>
      <trkpt lat="43.80214" lon="7.00574">
        <ele>1056</ele>
        <time>2011-12-08T10:28:08Z</time>
      </trkpt>
      <trkpt lat="43.8021" lon="7.00593">
        <ele>1057</ele>
        <time>2011-12-08T10:28:23Z</time>
      </trkpt>
      <trkpt lat="43.80204" lon="7.00613">
        <ele>1055</ele>
        <time>2011-12-08T10:28:38Z</time>
      </trkpt>
      <trkpt lat="43.80198" lon="7.00654">
        <ele>1065</ele>
        <time>2011-12-08T10:29:09Z</time>
      </trkpt>
      <trkpt lat="43.80193" lon="7.00683">
        <ele>1068</ele>
        <time>2011-12-08T10:29:39Z</time>
      </trkpt>
      <trkpt lat="43.80191" lon="7.00705">
        <ele>1065</ele>
        <time>2011-12-08T10:29:54Z</time>
      </trkpt>
      <trkpt lat="43.80193" lon="7.00725">
        <ele>1065</ele>
        <time>2011-12-08T10:30:09Z</time>
      </trkpt>
      <trkpt lat="43.80198" lon="7.00769">
        <ele>1072</ele>
        <time>2011-12-08T10:30:55Z</time>
      </trkpt>
      <trkpt lat="43.80209" lon="7.00797">
        <ele>1076</ele>
        <time>2011-12-08T10:31:25Z</time>
      </trkpt>
      <trkpt lat="43.80207" lon="7.00814">
        <ele>1077</ele>
        <time>2011-12-08T10:31:40Z</time>
      </trkpt>
      <trkpt lat="43.80205" lon="7.00832">
        <ele>1074</ele>
        <time>2011-12-08T10:31:56Z</time>
      </trkpt>
      <trkpt lat="43.80203" lon="7.00866">
        <ele>1081</ele>
        <time>2011-12-08T10:32:26Z</time>
      </trkpt>
      <trkpt lat="43.80213" lon="7.00904">
        <ele>1087</ele>
        <time>2011-12-08T10:32:57Z</time>
      </trkpt>
      <trkpt lat="43.80219" lon="7.00924">
        <ele>1083</ele>
        <time>2011-12-08T10:33:12Z</time>
      </trkpt>
      <trkpt lat="43.80225" lon="7.0096">
        <ele>1093</ele>
        <time>2011-12-08T10:33:58Z</time>
      </trkpt>
      <trkpt lat="43.8023" lon="7.00983">
        <ele>1095</ele>
        <time>2011-12-08T10:34:28Z</time>
      </trkpt>
      <trkpt lat="43.80226" lon="7.00997">
        <ele>1103</ele>
        <time>2011-12-08T10:34:43Z</time>
      </trkpt>
      <trkpt lat="43.80231" lon="7.01007">
        <ele>1103</ele>
        <time>2011-12-08T10:35:14Z</time>
      </trkpt>
      <trkpt lat="43.80235" lon="7.01019">
        <ele>1106</ele>
        <time>2011-12-08T10:35:29Z</time>
      </trkpt>
      <trkpt lat="43.80235" lon="7.01041">
        <ele>1114</ele>
        <time>2011-12-08T10:35:59Z</time>
      </trkpt>
      <trkpt lat="43.80243" lon="7.01074">
        <ele>1116</ele>
        <time>2011-12-08T10:36:29Z</time>
      </trkpt>
      <trkpt lat="43.80247" lon="7.01082">
        <ele>1107</ele>
        <time>2011-12-08T10:36:45Z</time>
      </trkpt>
      <trkpt lat="43.80251" lon="7.01098">
        <ele>1111</ele>
        <time>2011-12-08T10:37:00Z</time>
      </trkpt>
      <trkpt lat="43.80251" lon="7.01115">
        <ele>1112</ele>
        <time>2011-12-08T10:37:15Z</time>
      </trkpt>
      <trkpt lat="43.80252" lon="7.01122">
        <ele>1120</ele>
        <time>2011-12-08T10:37:30Z</time>
      </trkpt>
      <trkpt lat="43.80261" lon="7.01131">
        <ele>1117</ele>
        <time>2011-12-08T10:37:45Z</time>
      </trkpt>
      <trkpt lat="43.8026" lon="7.01158">
        <ele>1144</ele>
        <time>2011-12-08T10:38:16Z</time>
      </trkpt>
      <trkpt lat="43.80265" lon="7.01177">
        <ele>1110</ele>
        <time>2011-12-08T10:38:46Z</time>
      </trkpt>
      <trkpt lat="43.80268" lon="7.01197">
        <ele>1118</ele>
        <time>2011-12-08T10:39:16Z</time>
      </trkpt>
      <trkpt lat="43.80271" lon="7.01202">
        <ele>1133</ele>
        <time>2011-12-08T10:39:31Z</time>
      </trkpt>
      <trkpt lat="43.80283" lon="7.01194">
        <ele>1139</ele>
        <time>2011-12-08T10:39:46Z</time>
      </trkpt>
      <trkpt lat="43.8029" lon="7.01198">
        <ele>1143</ele>
        <time>2011-12-08T10:42:03Z</time>
      </trkpt>
      <trkpt lat="43.80296" lon="7.0119">
        <ele>1147</ele>
        <time>2011-12-08T10:43:27Z</time>
      </trkpt>
      <trkpt lat="43.80297" lon="7.01219">
        <ele>1131</ele>
        <time>2011-12-08T10:44:27Z</time>
      </trkpt>
      <trkpt lat="43.80304" lon="7.01237">
        <ele>1134</ele>
        <time>2011-12-08T10:44:43Z</time>
      </trkpt>
      <trkpt lat="43.80305" lon="7.01254">
        <ele>1137</ele>
        <time>2011-12-08T10:44:58Z</time>
      </trkpt>
      <trkpt lat="43.80295" lon="7.01262">
        <ele>1136</ele>
        <time>2011-12-08T10:45:13Z</time>
      </trkpt>
      <trkpt lat="43.80282" lon="7.01268">
        <ele>1149</ele>
        <time>2011-12-08T10:45:28Z</time>
      </trkpt>
      <trkpt lat="43.80273" lon="7.01283">
        <ele>1149</ele>
        <time>2011-12-08T10:45:44Z</time>
      </trkpt>
      <trkpt lat="43.80263" lon="7.01301">
        <ele>1140</ele>
        <time>2011-12-08T10:45:59Z</time>
      </trkpt>
      <trkpt lat="43.80266" lon="7.01325">
        <ele>1149</ele>
        <time>2011-12-08T10:46:14Z</time>
      </trkpt>
      <trkpt lat="43.80255" lon="7.01358">
        <ele>1146</ele>
        <time>2011-12-08T10:46:45Z</time>
      </trkpt>
      <trkpt lat="43.80259" lon="7.01376">
        <ele>1150</ele>
        <time>2011-12-08T10:47:00Z</time>
      </trkpt>
      <trkpt lat="43.80263" lon="7.01394">
        <ele>1155</ele>
        <time>2011-12-08T10:47:16Z</time>
      </trkpt>
      <trkpt lat="43.8027" lon="7.01412">
        <ele>1156</ele>
        <time>2011-12-08T10:47:31Z</time>
      </trkpt>
      <trkpt lat="43.80276" lon="7.01446">
        <ele>1162</ele>
        <time>2011-12-08T10:48:02Z</time>
      </trkpt>
      <trkpt lat="43.80276" lon="7.01464">
        <ele>1162</ele>
        <time>2011-12-08T10:48:17Z</time>
      </trkpt>
      <trkpt lat="43.80277" lon="7.01478">
        <ele>1169</ele>
        <time>2011-12-08T10:48:32Z</time>
      </trkpt>
      <trkpt lat="43.80287" lon="7.01489">
        <ele>1170</ele>
        <time>2011-12-08T10:48:47Z</time>
      </trkpt>
      <trkpt lat="43.80298" lon="7.01488">
        <ele>1168</ele>
        <time>2011-12-08T10:49:03Z</time>
      </trkpt>
      <trkpt lat="43.80304" lon="7.01495">
        <ele>1166</ele>
        <time>2011-12-08T10:49:18Z</time>
      </trkpt>
      <trkpt lat="43.80306" lon="7.01513">
        <ele>1173</ele>
        <time>2011-12-08T10:49:33Z</time>
      </trkpt>
      <trkpt lat="43.80302" lon="7.01528">
        <ele>1177</ele>
        <time>2011-12-08T10:49:49Z</time>
      </trkpt>
      <trkpt lat="43.80292" lon="7.01554">
        <ele>1177</ele>
        <time>2011-12-08T10:50:19Z</time>
      </trkpt>
      <trkpt lat="43.80289" lon="7.0157">
        <ele>1182</ele>
        <time>2011-12-08T10:50:34Z</time>
      </trkpt>
      <trkpt lat="43.8029" lon="7.01586">
        <ele>1182</ele>
        <time>2011-12-08T10:50:50Z</time>
      </trkpt>
      <trkpt lat="43.80291" lon="7.01603">
        <ele>1186</ele>
        <time>2011-12-08T10:51:05Z</time>
      </trkpt>
      <trkpt lat="43.80289" lon="7.01622">
        <ele>1184</ele>
        <time>2011-12-08T10:51:20Z</time>
      </trkpt>
      <trkpt lat="43.80282" lon="7.0164">
        <ele>1187</ele>
        <time>2011-12-08T10:51:36Z</time>
      </trkpt>
      <trkpt lat="43.80278" lon="7.01659">
        <ele>1184</ele>
        <time>2011-12-08T10:51:51Z</time>
      </trkpt>
      <trkpt lat="43.80262" lon="7.01688">
        <ele>1192</ele>
        <time>2011-12-08T10:52:22Z</time>
      </trkpt>
      <trkpt lat="43.80248" lon="7.01696">
        <ele>1195</ele>
        <time>2011-12-08T10:52:37Z</time>
      </trkpt>
      <trkpt lat="43.80243" lon="7.01715">
        <ele>1193</ele>
        <time>2011-12-08T10:52:52Z</time>
      </trkpt>
      <trkpt lat="43.80239" lon="7.01735">
        <ele>1195</ele>
        <time>2011-12-08T10:53:07Z</time>
      </trkpt>
      <trkpt lat="43.80238" lon="7.01755">
        <ele>1200</ele>
        <time>2011-12-08T10:53:23Z</time>
      </trkpt>
      <trkpt lat="43.80239" lon="7.01775">
        <ele>1199</ele>
        <time>2011-12-08T10:53:38Z</time>
      </trkpt>
      <trkpt lat="43.80251" lon="7.0179">
        <ele>1196</ele>
        <time>2011-12-08T10:53:53Z</time>
      </trkpt>
      <trkpt lat="43.80271" lon="7.01792">
        <ele>1200</ele>
        <time>2011-12-08T10:54:09Z</time>
      </trkpt>
      <trkpt lat="43.80282" lon="7.01801">
        <ele>1191</ele>
        <time>2011-12-08T10:54:24Z</time>
      </trkpt>
      <trkpt lat="43.80298" lon="7.01811">
        <ele>1201</ele>
        <time>2011-12-08T10:54:39Z</time>
      </trkpt>
      <trkpt lat="43.80309" lon="7.01826">
        <ele>1197</ele>
        <time>2011-12-08T10:54:55Z</time>
      </trkpt>
      <trkpt lat="43.80314" lon="7.01845">
        <ele>1198</ele>
        <time>2011-12-08T10:55:10Z</time>
      </trkpt>
      <trkpt lat="43.80315" lon="7.0186">
        <ele>1193</ele>
        <time>2011-12-08T10:55:25Z</time>
      </trkpt>
      <trkpt lat="43.80324" lon="7.01875">
        <ele>1204</ele>
        <time>2011-12-08T10:55:56Z</time>
      </trkpt>
      <trkpt lat="43.80324" lon="7.0188">
        <ele>1191</ele>
        <time>2011-12-08T10:56:56Z</time>
      </trkpt>
      <trkpt lat="43.80326" lon="7.01875">
        <ele>1191</ele>
        <time>2011-12-08T11:00:59Z</time>
      </trkpt>
      <trkpt lat="43.80323" lon="7.01865">
        <ele>1191</ele>
        <time>2011-12-08T11:01:44Z</time>
      </trkpt>
      <trkpt lat="43.8033" lon="7.01855">
        <ele>1196</ele>
        <time>2011-12-08T11:01:59Z</time>
      </trkpt>
      <trkpt lat="43.80337" lon="7.01845">
        <ele>1196</ele>
        <time>2011-12-08T11:02:15Z</time>
      </trkpt>
      <trkpt lat="43.80331" lon="7.0183">
        <ele>1201</ele>
        <time>2011-12-08T11:02:30Z</time>
      </trkpt>
      <trkpt lat="43.80326" lon="7.01812">
        <ele>1199</ele>
        <time>2011-12-08T11:02:45Z</time>
      </trkpt>
      <trkpt lat="43.80315" lon="7.01789">
        <ele>1201</ele>
        <time>2011-12-08T11:03:01Z</time>
      </trkpt>
      <trkpt lat="43.80308" lon="7.01776">
        <ele>1206</ele>
        <time>2011-12-08T11:03:16Z</time>
      </trkpt>
      <trkpt lat="43.80304" lon="7.01767">
        <ele>1200</ele>
        <time>2011-12-08T11:05:02Z</time>
      </trkpt>
      <trkpt lat="43.80302" lon="7.01767">
        <ele>1203</ele>
        <time>2011-12-08T11:05:17Z</time>
      </trkpt>
      <trkpt lat="43.80303" lon="7.01762">
        <ele>1197</ele>
        <time>2011-12-08T11:06:18Z</time>
      </trkpt>
    </trkseg>
  </trk>
</gpx>